createdAt,value
2022-07-29T00:00:02.412Z,99059.56
2022-07-29T00:02:33.118Z,99061.13
2022-07-29T00:05:00.123Z,99063.69
2022-07-29T00:07:26.977Z,99058.75
2022-07-29T00:09:53.660Z,99058.53
2022-07-29T00:12:26.160Z,99058.97
2022-07-29T00:14:55.908Z,99050.41
2022-07-29T00:17:23.968Z,99062.50
2022-07-29T00:19:50.916Z,99061.56
2022-07-29T00:22:17.576Z,99060.28
2022-07-29T00:24:44.298Z,99064.28
2022-07-29T00:27:10.955Z,99067.81
2022-07-29T00:29:37.740Z,99072.06
2022-07-29T00:32:04.662Z,99050.84
2022-07-29T00:34:50.297Z,99053.78
2022-07-29T00:37:17.310Z,99054.41
2022-07-29T00:39:44.505Z,99061.13
2022-07-29T00:42:11.703Z,99054.41
2022-07-29T00:44:42.869Z,99055.75
2022-07-29T00:47:11.443Z,99056.34
2022-07-29T00:49:40.920Z,99052.97
2022-07-29T00:52:09.192Z,99055.31
2022-07-29T00:54:39.229Z,99046.78
2022-07-29T00:57:11.967Z,99046.06
2022-07-29T00:59:38.700Z,99050.63
2022-07-29T01:02:05.633Z,99046.41
2022-07-29T01:04:32.954Z,99049.31
2022-07-29T01:07:04.456Z,99044.00
2022-07-29T01:09:37.321Z,99054.41
2022-07-29T01:12:22.600Z,99053.34
2022-07-29T01:14:50.467Z,99060.59
2022-07-29T01:17:23.260Z,99049.22
2022-07-29T01:20:16.199Z,99047.63
2022-07-29T01:22:55.279Z,99051.00
2022-07-29T01:26:11.394Z,99050.56
2022-07-29T01:29:04.049Z,99053.84
2022-07-29T01:31:53.827Z,99053.25
2022-07-29T01:34:51.665Z,99046.25
2022-07-29T01:37:23.304Z,99048.41
2022-07-29T01:39:53.601Z,99048.16
2022-07-29T01:42:35.121Z,99056.09
2022-07-29T01:45:15.488Z,99049.91
2022-07-29T01:48:07.551Z,99043.81
2022-07-29T01:50:37.065Z,99047.41
2022-07-29T01:53:08.763Z,99047.97
2022-07-29T01:55:39.653Z,99048.38
2022-07-29T01:58:07.957Z,99055.13
2022-07-29T02:00:35.800Z,99053.78
2022-07-29T02:03:12.102Z,99048.13
2022-07-29T02:05:42.093Z,99044.97
2022-07-29T02:08:10.795Z,99044.44
2022-07-29T02:10:40.388Z,99036.69
2022-07-29T02:13:08.736Z,99043.00
2022-07-29T02:15:37.331Z,99048.44
2022-07-29T02:18:15.359Z,99049.41
2022-07-29T02:20:47.872Z,99050.69
2022-07-29T02:23:19.045Z,99052.78
2022-07-29T02:25:47.702Z,99053.22
2022-07-29T02:28:15.964Z,99050.69
2022-07-29T02:30:44.840Z,99048.84
2022-07-29T02:33:14.667Z,99042.09
2022-07-29T02:35:42.941Z,99050.22
2022-07-29T02:38:33.028Z,99047.06
2022-07-29T02:41:02.298Z,99046.38
2022-07-29T02:43:31.617Z,99043.28
2022-07-29T02:46:00.765Z,99044.41
2022-07-29T02:48:35.946Z,99046.47
2022-07-29T02:51:09.488Z,99051.03
2022-07-29T02:53:40.236Z,99043.56
2022-07-29T02:56:15.676Z,99045.31
2022-07-29T02:58:47.915Z,99046.25
2022-07-29T03:01:22.735Z,99041.13
2022-07-29T03:03:50.768Z,99042.06
2022-07-29T03:06:37.419Z,99046.47
2022-07-29T03:09:12.880Z,99038.34
2022-07-29T03:11:50.064Z,99045.78
2022-07-29T03:14:21.879Z,99050.09
2022-07-29T03:16:49.931Z,99053.41
2022-07-29T03:19:17.681Z,99051.22
2022-07-29T03:21:44.492Z,99049.69
2022-07-29T03:24:11.287Z,99054.72
2022-07-29T03:26:38.552Z,99059.09
2022-07-29T03:29:05.262Z,99064.09
2022-07-29T03:31:33.454Z,99060.38
2022-07-29T03:34:00.499Z,99065.34
2022-07-29T03:36:27.329Z,99066.38
2022-07-29T03:38:54.290Z,99072.78
2022-07-29T03:41:25.616Z,99070.75
2022-07-29T03:43:52.941Z,99072.78
2022-07-29T03:46:23.658Z,99072.97
2022-07-29T03:48:57.435Z,99068.47
2022-07-29T03:51:34.027Z,99075.25
2022-07-29T03:54:10.211Z,99076.88
2022-07-29T03:56:41.180Z,99077.06
2022-07-29T03:59:08.667Z,99077.88
2022-07-29T04:01:36.364Z,99083.84
2022-07-29T04:04:03.869Z,99083.84
2022-07-29T04:06:44.384Z,99078.28
2022-07-29T04:09:13.120Z,99083.38
2022-07-29T04:12:01.602Z,99082.72
2022-07-29T04:14:28.325Z,99082.06
2022-07-29T04:16:55.062Z,99079.94
2022-07-29T04:19:21.775Z,99081.97
2022-07-29T04:21:48.613Z,99082.56
2022-07-29T04:24:15.912Z,99085.19
2022-07-29T04:26:42.986Z,99085.16
2022-07-29T04:29:09.847Z,99089.25
2022-07-29T04:31:36.666Z,99082.56
2022-07-29T04:34:03.398Z,99082.28
2022-07-29T04:36:30.295Z,99077.69
2022-07-29T04:38:57.162Z,99075.25
2022-07-29T04:41:23.919Z,99072.94
2022-07-29T04:44:01.981Z,99075.91
2022-07-29T04:46:29.247Z,99073.84
2022-07-29T04:48:56.198Z,99079.47
2022-07-29T04:51:23.874Z,99073.75
2022-07-29T04:53:50.594Z,99073.00
2022-07-29T04:56:17.254Z,99076.22
2022-07-29T04:58:44.094Z,99073.47
2022-07-29T05:01:10.893Z,99069.41
2022-07-29T05:03:37.643Z,99073.31
2022-07-29T05:06:04.412Z,99082.88
2022-07-29T05:08:31.212Z,99086.75
2022-07-29T05:10:57.965Z,99083.75
2022-07-29T05:13:45.376Z,99084.00
2022-07-29T05:16:14.453Z,99079.09
2022-07-29T05:18:42.016Z,99083.03
2022-07-29T05:21:08.705Z,99081.59
2022-07-29T05:23:35.760Z,99082.75
2022-07-29T05:26:02.716Z,99082.63
2022-07-29T05:28:29.606Z,99081.91
2022-07-29T05:30:57.321Z,99074.97
2022-07-29T05:33:34.884Z,99080.41
2022-07-29T05:36:08.332Z,99079.78
2022-07-29T05:38:37.680Z,99075.75
2022-07-29T05:41:07.678Z,99079.66
2022-07-29T05:43:34.401Z,99071.38
2022-07-29T05:46:01.479Z,99080.75
2022-07-29T05:48:28.436Z,99085.38
2022-07-29T05:50:55.925Z,99084.13
2022-07-29T05:53:23.078Z,99074.53
2022-07-29T05:55:50.297Z,99079.25
2022-07-29T05:58:17.467Z,99077.59
2022-07-29T06:00:44.444Z,99075.00
2022-07-29T06:03:11.238Z,99070.31
2022-07-29T06:05:38.171Z,99077.22
2022-07-29T06:08:08.565Z,99075.75
2022-07-29T06:10:38.653Z,99080.25
2022-07-29T06:13:05.618Z,99076.75
2022-07-29T06:15:32.655Z,99080.09
2022-07-29T06:18:01.292Z,99084.72
2022-07-29T06:20:32.840Z,99080.41
2022-07-29T06:23:00.370Z,99084.56
2022-07-29T06:25:30.218Z,99087.81
2022-07-29T06:27:57.811Z,99081.56
2022-07-29T06:30:24.694Z,99097.31
2022-07-29T06:32:51.611Z,99100.88
2022-07-29T06:35:38.516Z,99097.25
2022-07-29T06:38:09.580Z,99102.59
2022-07-29T06:41:08.630Z,99102.34
2022-07-29T06:43:50.162Z,99102.00
2022-07-29T06:46:19.597Z,99107.56
2022-07-29T06:48:48.497Z,99109.16
2022-07-29T06:51:16.318Z,99104.53
2022-07-29T06:54:00.658Z,99105.25
2022-07-29T06:56:39.508Z,99115.44
2022-07-29T06:59:08.664Z,99111.41
2022-07-29T07:01:40.233Z,99105.97
2022-07-29T07:04:07.776Z,99112.34
2022-07-29T07:06:34.685Z,99099.88
2022-07-29T07:09:01.927Z,99098.13
2022-07-29T07:11:28.973Z,99099.41
2022-07-29T07:14:00.666Z,99095.69
2022-07-29T07:16:29.652Z,99098.75
2022-07-29T07:18:56.453Z,99089.91
2022-07-29T07:21:23.175Z,99091.59
2022-07-29T07:23:49.821Z,99097.59
2022-07-29T07:26:16.575Z,99095.81
2022-07-29T07:28:43.332Z,99087.53
2022-07-29T07:31:10.576Z,99092.88
2022-07-29T07:33:37.315Z,99095.81
2022-07-29T07:36:04.223Z,99101.13
2022-07-29T07:38:32.570Z,99095.69
2022-07-29T07:41:00.200Z,99093.91
2022-07-29T07:43:26.967Z,99095.91
2022-07-29T07:45:53.869Z,99099.28
2022-07-29T07:48:20.881Z,99095.09
2022-07-29T07:50:47.604Z,99094.28
2022-07-29T07:53:14.568Z,99092.41
2022-07-29T07:58:30.416Z,99099.94
2022-07-29T08:00:57.116Z,99088.16
2022-07-29T08:03:23.857Z,99087.97
2022-07-29T08:05:52.825Z,99085.03
2022-07-29T08:08:19.728Z,99089.59
2022-07-29T08:10:57.093Z,99090.28
2022-07-29T08:13:28.186Z,99088.25
2022-07-29T08:16:13.141Z,99098.59
2022-07-29T08:18:42.052Z,99092.63
2022-07-29T08:21:09.041Z,99092.91
2022-07-29T08:23:51.502Z,99103.19
2022-07-29T08:26:23.458Z,99096.25
2022-07-29T08:28:51.785Z,99099.66
2022-07-29T08:31:19.026Z,99094.50
2022-07-29T08:33:45.972Z,99094.75
2022-07-29T08:36:14.302Z,99098.16
2022-07-29T08:38:41.084Z,99100.22
2022-07-29T08:41:07.846Z,99089.06
2022-07-29T08:43:38.263Z,99086.34
2022-07-29T08:46:05.177Z,99078.31
2022-07-29T08:48:32.394Z,99090.34
2022-07-29T08:50:59.788Z,99085.50
2022-07-29T08:53:28.195Z,99080.13
2022-07-29T08:55:55.876Z,99079.34
2022-07-29T08:58:25.146Z,99079.50
2022-07-29T09:00:57.855Z,99084.91
2022-07-29T09:03:26.811Z,99085.88
2022-07-29T09:05:54.013Z,99076.53
2022-07-29T09:08:21.120Z,99069.84
2022-07-29T09:10:48.386Z,99079.59
2022-07-29T09:13:15.128Z,99077.00
2022-07-29T09:15:41.974Z,99075.81
2022-07-29T09:18:20.509Z,99072.19
2022-07-29T09:21:13.927Z,99070.34
2022-07-29T09:23:42.655Z,99064.00
2022-07-29T09:26:09.316Z,99062.34
2022-07-29T09:28:43.574Z,99062.69
2022-07-29T09:31:10.456Z,99062.84
2022-07-29T09:33:40.166Z,99056.59
2022-07-29T09:36:10.124Z,99050.50
2022-07-29T09:38:40.201Z,99047.06
2022-07-29T09:41:09.025Z,99049.34
2022-07-29T09:43:35.800Z,99037.19
2022-07-29T09:46:12.983Z,99027.88
2022-07-29T09:48:40.160Z,99028.91
2022-07-29T09:51:20.261Z,99026.13
2022-07-29T09:53:48.944Z,99029.91
2022-07-29T09:56:15.598Z,99035.66
2022-07-29T09:58:42.324Z,99028.16
2022-07-29T10:01:09.271Z,99037.19
2022-07-29T10:03:54.594Z,99029.31
2022-07-29T10:06:21.321Z,99018.44
2022-07-29T10:08:48.082Z,99024.41
2022-07-29T10:11:19.520Z,99024.47
2022-07-29T10:13:48.842Z,99020.69
2022-07-29T10:16:17.100Z,99020.25
2022-07-29T10:18:44.891Z,99023.69
2022-07-29T10:21:22.565Z,99016.81
2022-07-29T10:24:01.289Z,99013.88
2022-07-29T10:26:29.883Z,99012.38
2022-07-29T10:28:56.762Z,99018.94
2022-07-29T10:31:32.850Z,99014.13
2022-07-29T10:34:18.220Z,99010.38
2022-07-29T10:37:04.891Z,99002.91
2022-07-29T10:40:30.150Z,99001.69
2022-07-29T10:43:08.391Z,99002.94
2022-07-29T10:45:35.632Z,99004.94
2022-07-29T10:48:09.656Z,99002.38
2022-07-29T10:50:58.220Z,98999.91
2022-07-29T10:53:26.074Z,98989.09
2022-07-29T10:56:01.211Z,98991.16
2022-07-29T10:58:33.313Z,98997.88
2022-07-29T11:01:37.774Z,98998.84
2022-07-29T11:04:06.221Z,98984.22
2022-07-29T11:06:59.699Z,98992.28
2022-07-29T11:09:37.728Z,98990.78
2022-07-29T11:12:25.521Z,98986.31
2022-07-29T11:14:53.419Z,98986.78
2022-07-29T11:17:20.383Z,98983.34
2022-07-29T11:19:51.983Z,98982.56
2022-07-29T11:22:36.060Z,98972.44
2022-07-29T11:25:19.228Z,98970.72
2022-07-29T11:28:15.467Z,98968.13
2022-07-29T11:30:52.162Z,98961.78
2022-07-29T11:33:37.522Z,98962.88
2022-07-29T11:36:28.244Z,98952.75
2022-07-29T11:39:37.112Z,98954.59
2022-07-29T11:42:32.273Z,98952.09
2022-07-29T11:45:42.082Z,98946.31
2022-07-29T11:47:55.491Z,98943.97
2022-07-29T11:50:38.088Z,98947.25
2022-07-29T11:53:13.548Z,98952.75
2022-07-29T11:55:51.346Z,98945.06
2022-07-29T11:58:25.078Z,98945.84
2022-07-29T12:00:52.765Z,98939.75
2022-07-29T12:03:33.613Z,98935.50
2022-07-29T12:06:12.306Z,98940.06
2022-07-29T12:08:44.296Z,98933.94
2022-07-29T12:11:20.900Z,98937.09
2022-07-29T12:13:49.818Z,98922.00
2022-07-29T12:16:29.319Z,98918.66
2022-07-29T12:19:02.388Z,98920.28
2022-07-29T12:21:53.932Z,98924.94
2022-07-29T12:24:23.471Z,98912.97
2022-07-29T12:27:02.988Z,98908.06
2022-07-29T12:29:35.656Z,98915.88
2022-07-29T12:32:05.517Z,98912.75
2022-07-29T12:34:33.248Z,98916.63
2022-07-29T12:37:00.617Z,98918.13
2022-07-29T12:39:28.992Z,98904.75
2022-07-29T12:42:04.724Z,98906.00
2022-07-29T12:44:49.211Z,98912.25
2022-07-29T12:47:19.167Z,98896.88
2022-07-29T12:49:47.703Z,98896.28
2022-07-29T12:52:30.625Z,98894.38
2022-07-29T12:54:58.226Z,98903.50
2022-07-29T12:57:25.590Z,98899.16
2022-07-29T13:00:07.693Z,98904.84
2022-07-29T13:02:35.684Z,98899.13
2022-07-29T13:05:06.020Z,98895.31
2022-07-29T13:07:55.273Z,98894.78
2022-07-29T13:10:23.880Z,98902.25
2022-07-29T13:13:10.750Z,98893.06
2022-07-29T13:15:43.316Z,98898.03
2022-07-29T13:18:33.690Z,98897.47
2022-07-29T13:21:14.976Z,98896.56
2022-07-29T13:23:41.976Z,98893.53
2022-07-29T13:26:13.084Z,98898.28
2022-07-29T13:28:40.025Z,98891.28
2022-07-29T13:31:06.854Z,98900.06
2022-07-29T13:33:33.672Z,98899.28
2022-07-29T13:36:00.425Z,98892.78
2022-07-29T13:38:30.915Z,98893.59
2022-07-29T13:40:58.479Z,98886.06
2022-07-29T13:43:25.474Z,98887.13
2022-07-29T13:45:53.038Z,98884.22
2022-07-29T13:48:19.813Z,98894.28
2022-07-29T13:50:47.594Z,98895.66
2022-07-29T13:53:17.466Z,98896.75
2022-07-29T13:55:45.197Z,98902.22
2022-07-29T13:58:12.008Z,98908.19
2022-07-29T14:00:38.839Z,98912.97
2022-07-29T14:03:05.599Z,98934.69
2022-07-29T14:05:32.497Z,98963.63
2022-07-29T14:07:59.322Z,98952.69
2022-07-29T14:10:27.738Z,98969.31
2022-07-29T14:12:54.504Z,98977.50
2022-07-29T14:15:21.361Z,98982.25
2022-07-29T14:17:48.052Z,98961.94
2022-07-29T14:20:16.531Z,98971.66
2022-07-29T14:22:45.136Z,98966.53
2022-07-29T14:25:14.497Z,98964.53
2022-07-29T14:27:42.845Z,98971.81
2022-07-29T14:30:10.552Z,98958.91
2022-07-29T14:32:38.297Z,98955.69
2022-07-29T14:35:06.244Z,98950.84
2022-07-29T14:37:39.720Z,98959.81
2022-07-29T14:40:08.632Z,98957.03
2022-07-29T14:42:35.386Z,98958.22
2022-07-29T14:45:02.184Z,98959.13
2022-07-29T14:47:28.888Z,98967.16
2022-07-29T14:49:55.611Z,98961.88
2022-07-29T14:52:22.277Z,98960.09
2022-07-29T14:54:49.130Z,98956.84
2022-07-29T14:57:15.935Z,98938.69
2022-07-29T14:59:42.629Z,98941.25
2022-07-29T15:02:09.692Z,98930.56
2022-07-29T15:04:36.419Z,98927.91
2022-07-29T15:07:03.771Z,98925.53
2022-07-29T15:09:30.465Z,98918.16
2022-07-29T15:11:57.333Z,98911.22
2022-07-29T15:14:24.328Z,98907.41
2022-07-29T15:16:52.882Z,98903.31
2022-07-29T15:19:20.187Z,98908.13
2022-07-29T15:21:49.114Z,98919.47
2022-07-29T15:24:18.168Z,98904.56
2022-07-29T15:26:44.965Z,98902.34
2022-07-29T15:29:11.964Z,98904.94
2022-07-29T15:31:39.379Z,98896.09
2022-07-29T15:34:07.286Z,98894.69
2022-07-29T15:39:22.130Z,98902.38
2022-07-29T15:41:49.212Z,98908.03
2022-07-29T15:44:15.966Z,98896.88
2022-07-29T15:47:02.001Z,98909.00
2022-07-29T15:49:48.119Z,98900.19
2022-07-29T15:52:25.866Z,98892.81
2022-07-29T15:54:55.490Z,98904.53
2022-07-29T15:57:23.300Z,98895.78
2022-07-29T15:59:50.273Z,98912.25
2022-07-29T16:02:17.734Z,98894.75
2022-07-29T16:04:44.414Z,98893.81
2022-07-29T16:07:11.186Z,98885.53
2022-07-29T16:09:37.844Z,98875.69
2022-07-29T16:12:14.858Z,98888.53
2022-07-29T16:14:44.313Z,98876.25
2022-07-29T16:17:14.442Z,98868.59
2022-07-29T16:19:43.218Z,98876.63
2022-07-29T16:22:10.507Z,98873.66
2022-07-29T16:24:37.319Z,98868.06
2022-07-29T16:27:04.135Z,98869.41
2022-07-29T16:29:30.858Z,98875.41
2022-07-29T16:31:57.647Z,98882.47
2022-07-29T16:34:24.366Z,98877.06
2022-07-29T16:36:51.033Z,98874.59
2022-07-29T16:39:17.693Z,98870.22
2022-07-29T16:41:44.450Z,98874.88
2022-07-29T16:44:11.078Z,98875.44
2022-07-29T16:46:40.277Z,98878.94
2022-07-29T16:49:08.297Z,98877.31
2022-07-29T16:51:35.059Z,98883.03
2022-07-29T16:54:01.862Z,98874.84
2022-07-29T16:56:28.480Z,98877.53
2022-07-29T16:58:58.044Z,98869.69
2022-07-29T17:01:24.738Z,98876.72
2022-07-29T17:04:06.635Z,98880.16
2022-07-29T17:06:37.546Z,98876.81
2022-07-29T17:09:05.725Z,98880.03
2022-07-29T17:11:53.393Z,98884.56
2022-07-29T17:14:25.242Z,98873.13
2022-07-29T17:17:00.642Z,98870.22
2022-07-29T17:19:35.155Z,98877.88
2022-07-29T17:22:10.503Z,98869.75
2022-07-29T17:24:40.985Z,98873.53
2022-07-29T17:27:09.426Z,98875.59
2022-07-29T17:29:36.145Z,98884.69
2022-07-29T17:32:03.625Z,98898.06
2022-07-29T17:34:30.719Z,98896.81
2022-07-29T17:36:57.955Z,98890.75
2022-07-29T17:39:24.741Z,98892.19
2022-07-29T17:41:51.454Z,98888.69
2022-07-29T17:44:18.325Z,98883.78
2022-07-29T17:46:45.321Z,98880.00
2022-07-29T17:49:12.138Z,98877.44
2022-07-29T17:51:38.964Z,98888.59
2022-07-29T17:54:05.889Z,98884.28
2022-07-29T17:56:32.763Z,98887.31
2022-07-29T17:59:01.523Z,98893.72
2022-07-29T18:01:28.797Z,98895.19
2022-07-29T18:03:59.836Z,98890.66
2022-07-29T18:06:27.218Z,98902.09
2022-07-29T18:08:54.183Z,98898.94
2022-07-29T18:11:21.759Z,98896.50
2022-07-29T18:13:48.615Z,98896.03
2022-07-29T18:16:15.453Z,98904.50
2022-07-29T18:18:44.346Z,98910.59
2022-07-29T18:21:11.729Z,98909.84
2022-07-29T18:23:40.753Z,98913.09
2022-07-29T18:26:07.560Z,98907.13
2022-07-29T18:28:34.323Z,98910.28
2022-07-29T18:31:02.294Z,98917.97
2022-07-29T18:33:29.062Z,98921.56
2022-07-29T18:36:04.191Z,98926.00
2022-07-29T18:38:38.268Z,98933.16
2022-07-29T18:41:04.962Z,98928.47
2022-07-29T18:43:31.760Z,98922.44
2022-07-29T18:45:58.434Z,98926.16
2022-07-29T18:48:25.288Z,98927.38
2022-07-29T18:50:52.017Z,98929.91
2022-07-29T18:53:18.849Z,98922.72
2022-07-29T18:55:45.592Z,98913.78
2022-07-29T18:58:12.342Z,98916.34
2022-07-29T19:00:39.135Z,98917.00
2022-07-29T19:03:05.881Z,98919.41
2022-07-29T19:05:32.969Z,98918.91
2022-07-29T19:07:59.752Z,98919.16
2022-07-29T19:10:26.941Z,98914.16
2022-07-29T19:12:54.389Z,98922.25
2022-07-29T19:15:21.136Z,98932.09
2022-07-29T19:17:48.649Z,98924.63
2022-07-29T19:20:15.659Z,98925.88
2022-07-29T19:22:42.465Z,98920.06
2022-07-29T19:25:09.993Z,98924.78
2022-07-29T19:27:36.869Z,98939.91
2022-07-29T19:30:06.969Z,98950.63
2022-07-29T19:32:33.832Z,98951.00
2022-07-29T19:35:19.126Z,98947.13
2022-07-29T19:37:45.809Z,98950.09
2022-07-29T19:40:13.141Z,98958.69
2022-07-29T19:42:39.813Z,98966.13
2022-07-29T19:45:06.863Z,98971.91
2022-07-29T19:47:33.723Z,98970.88
2022-07-29T19:50:00.779Z,98970.56
2022-07-29T19:52:27.969Z,98967.75
2022-07-29T19:54:54.816Z,98973.72
2022-07-29T19:57:21.491Z,98978.84
2022-07-29T19:59:48.155Z,98988.16
2022-07-29T20:02:16.537Z,98987.34
2022-07-29T20:04:43.432Z,98994.22
2022-07-29T20:07:10.117Z,98995.41
2022-07-29T20:09:36.991Z,98986.16
2022-07-29T20:12:04.845Z,98994.09
2022-07-29T20:14:31.607Z,98987.91
2022-07-29T20:16:58.482Z,98996.94
2022-07-29T20:19:25.385Z,98993.91
2022-07-29T20:21:52.432Z,98991.84
2022-07-29T20:24:20.403Z,98988.13
2022-07-29T20:26:48.133Z,98990.50
2022-07-29T20:29:15.175Z,98993.91
2022-07-29T20:31:43.374Z,98990.31
2022-07-29T20:34:10.397Z,98994.06
2022-07-29T20:36:37.636Z,98987.41
2022-07-29T20:39:04.326Z,98991.59
2022-07-29T20:41:31.000Z,98991.78
2022-07-29T20:43:57.670Z,98997.91
2022-07-29T20:46:24.419Z,98995.66
2022-07-29T20:48:51.162Z,98993.19
2022-07-29T20:51:17.887Z,98992.94
2022-07-29T20:53:44.615Z,98991.31
2022-07-29T20:56:12.620Z,98985.38
2022-07-29T20:58:40.380Z,98977.38
2022-07-29T21:01:07.774Z,98989.41
2022-07-29T21:03:34.551Z,98989.28
2022-07-29T21:06:01.977Z,98986.84
2022-07-29T21:08:28.708Z,98985.84
2022-07-29T21:10:55.381Z,98983.41
2022-07-29T21:13:23.065Z,98981.75
2022-07-29T21:15:51.688Z,98976.16
2022-07-29T21:18:32.392Z,98982.13
2022-07-29T21:21:04.907Z,98977.56
2022-07-29T21:23:31.785Z,98979.66
2022-07-29T21:25:59.096Z,98966.97
2022-07-29T21:28:36.826Z,98974.88
2022-07-29T21:31:06.192Z,98972.81
2022-07-29T21:33:33.505Z,98969.66
2022-07-29T21:36:26.641Z,98963.25
2022-07-29T21:38:48.248Z,98960.56
2022-07-29T21:41:15.463Z,98959.16
2022-07-29T21:43:42.513Z,98966.34
2022-07-29T21:46:09.529Z,98968.56
2022-07-29T21:48:36.276Z,98965.81
2022-07-29T21:51:03.479Z,98964.19
2022-07-29T21:53:30.748Z,98970.72
2022-07-29T21:55:58.265Z,98957.16
2022-07-29T21:58:26.012Z,98958.06
2022-07-29T22:00:52.863Z,98965.47
2022-07-29T22:03:19.772Z,98956.97
2022-07-29T22:05:46.520Z,98958.31
2022-07-29T22:08:13.599Z,98954.00
2022-07-29T22:10:40.501Z,98960.44
2022-07-29T22:13:07.278Z,98942.69
2022-07-29T22:15:34.190Z,98943.28
2022-07-29T22:18:01.070Z,98941.88
2022-07-29T22:20:27.929Z,98945.06
2022-07-29T22:22:55.249Z,98947.91
2022-07-29T22:25:22.732Z,98957.59
2022-07-29T22:27:49.607Z,98947.59
2022-07-29T22:30:16.798Z,98947.75
2022-07-29T22:32:43.729Z,98950.78
2022-07-29T22:35:10.683Z,98948.63
2022-07-29T22:37:37.570Z,98951.16
2022-07-29T22:40:05.133Z,98945.88
2022-07-29T22:42:32.437Z,98943.31
2022-07-29T22:44:59.091Z,98937.94
2022-07-29T22:47:46.409Z,98941.88
2022-07-29T22:50:12.560Z,98951.44
2022-07-29T22:52:39.364Z,98961.91
2022-07-29T22:55:06.436Z,98977.69
2022-07-29T22:57:33.068Z,99003.34
2022-07-29T23:00:02.181Z,99002.88
2022-07-29T23:02:29.148Z,98985.63
2022-07-29T23:04:55.847Z,98968.91
2022-07-29T23:07:23.123Z,98982.13
2022-07-29T23:09:50.111Z,98987.06
2022-07-29T23:12:16.827Z,98960.50
2022-07-29T23:14:44.019Z,98945.13
2022-07-29T23:17:10.717Z,98960.44
2022-07-29T23:19:37.441Z,98957.69
2022-07-29T23:22:05.849Z,98942.84
2022-07-29T23:24:32.463Z,98941.50
2022-07-29T23:26:59.587Z,98938.69
2022-07-29T23:29:26.635Z,98936.59
2022-07-29T23:31:53.253Z,98927.72
2022-07-29T23:34:19.975Z,98922.44
2022-07-29T23:36:46.834Z,98916.25
2022-07-29T23:39:13.561Z,98906.44
2022-07-29T23:41:40.838Z,98901.25
2022-07-29T23:44:07.906Z,98895.91
2022-07-29T23:46:34.836Z,98905.09
2022-07-29T23:49:01.623Z,98915.63
2022-07-29T23:51:29.285Z,98932.34
2022-07-29T23:53:56.363Z,98942.28
2022-07-29T23:56:23.205Z,98945.31
2022-07-29T23:58:50.168Z,98928.97
